Terminal Aerodrome Forecast
Issued by NWS Greer, SC

Home | Current Version | Previous Version | Text Only | Print | Product List | Glossary On
Versions: 1 2 3 4 5 6 7 8 9 10 11 12 13 14 15 16 17 18 19 20 21 22 23 24 25 26 27 28 29 30 31 32 33 34 35 36 37 38 39 40 41 42 43 44 45 46 47 48 49 50
000
FTUS42 KGSP 260539
TAFCLT
TAF
KCLT 260539Z 2606/2706 16003KT P6SM BKN035
      TEMPO 2608/2612 5SM BR BKN025
     FM261200 18003KT P6SM BKN045
     FM261600 20007KT P6SM FEW050
     FM270000 18005KT P6SM SCT250=

USA.gov is the U.S. government's official web portal to all federal, state and local government web resources and services.